< < Back
Terminal Aerodrome Forecast


Current Version              Previous Versions:   1  2  3  4  5  6  7  8  9  

Terminal Aerodrome Forecast

206
FTUS42 KCHS 301720
TAFCHS
TAF
KCHS 301720Z 3018/3118 20011KT P6SM SCT050
     FM310000 21006KT P6SM FEW080 SCT250=



Latest METAR

023
SAUS80 KWBC 310100
MTRCHS
METAR KCHS 310056Z 21012KT 10SM FEW050 FEW110 SCT250 31/23 A2999 RMK AO2
SLP156 FRQ LTGICCC DSNT W CB DSNT W T03060233


USA.gov is the U.S. government's official web portal to all federal, state and local government web resources and services.